Portada
METAR-TAF:

METAR-TAF

Aeroports :

Luang Prabang, Laos

latitud: 19-53N, longitud: 102-08E, altitud: 305 m

Observació

L'informe es va fer fa 1 hora i 13 minuts, a les 08:00 UTC
Vent 4 kt del Nord-Oest
Temperatura 31°C
Humitat 38%
Pressió 1010 hPa
Visibilitat 10 km o més
Escasses núvols a una alçada de 2700 ft
Núvols disperses a una alçada de 6000 ft

METAR: VLLB 240800Z 32004KT 9999 FEW027 SCT060 31/15 Q1010 NOSIG

Hora: 16:13 (09:13 UTC)

Pronòstic

L'informe es va fer fa 4 hores i 13 minuts, a les 05:00 UTC
Pronòstic vàlid del 24 a les 06 UTC al 25 a les 06 UTC
Vent 4 kt del Nord-Est
Visibilitat 10 km o més
Escasses núvols a una alçada de 2000 ft
Núvols disperses a una alçada de 6000 ft

TAF: VLLB 240500Z 2406/2506 04004KT 9999 FEW020 SCT060

Observacions i pronòstics meteorològics de més de 4000 aeroports (METAR i TAF).

Les estacions disponibles són els punts grocs i vermells al mapa.

Posi el ratolí al punt desitjat per veure el nom de l'estació.

Feu clic per veure les observacions i els pronòstics meteorològics.

Per canviar el mapa: feu clic els botons verds amb una creu de color negre per apropar; al botó verd amb un guió per allunyar la imatge; o en les fletxes verdes per a mapes adjacents.


METAR-TAF: